Impacts METAR Board
IDs:

KCLE - Cleveland/Hopkins In, OH, US

Updated at: 1100 UTC 23 May 2018
Potential Impact None Slight Moderate High
Time 22/23Z 23/00Z 23/01Z 23/02Z 23/03Z 23/04Z 23/05Z 23/06Z 23/07Z 23/08Z 23/09Z 23/10Z 23/11Z
Temp72 67 64 64 63 61 60 59 58 57 57 56 55
Dewpt67 63 61 61 59 57 56 56 55 53 53 52 52
Altim29.94 29.96 29.98 30.01 30.04 30.06 30.06 30.06 30.07 30.08 30.10 30.11 30.14
VIS10 5 4 6 7 8 7 9 9 10 10 10 10
CIG49 39 5 7 13 23 15 13 24 20 18 10 4
CoverBKNBKNOVCOVCOVCOVCOVCOVCOVCOVCOVCOVCOVC
FltCatVFRMVFRIFRIFRMVFRMVFRMVFRMVFRMVFRMVFRMVFRMVFRLIFR
WX--BRBRBR-----DZ------------
WDir230350360340360360360330350350360360360
WSpd5 13 9 6 10 7 6 6 5 5 7 6 7
WGst-- -- -- -- -- -- -- -- -- -- -- -- --
Raw hourly METARs
KCLE 222251Z 23005KT 10SM FEW020 BKN049 BKN065 BKN250 22/19 A2994 RMK AO2 SLP135 T02220194
KCLE 230002Z 35013KT 5SM BR SCT015 SCT028 BKN039 BKN250 19/17 A2996 RMK AO2 WSHFT 2347 T01940172
KCLE 230051Z 36009KT 4SM BR BKN005 OVC013 18/16 A2998 RMK AO2 WSHFT 2347 SLP148 T01780161
KCLE 230202Z 34006KT 6SM BR BKN007 BKN012 OVC024 18/16 A3001 RMK AO2 T01780161
KCLE 230259Z 36010KT 7SM SCT004 SCT008 OVC013 17/15 A3004 RMK AO2 T01720150
KCLE 230351Z 36007KT 8SM FEW016 OVC023 16/14 A3006 RMK AO2 SLP173 T01610139
KCLE 230451Z 36006KT 7SM -DZ OVC015 16/13 A3006 RMK AO2 DZB50 SLP174 P0000 T01560133 402610156
KCLE 230551Z 33006KT 9SM OVC013 15/13 A3006 RMK AO2 DZE19 SLP178 P0000 60000 T01500133 10211 20150 51011
KCLE 230651Z 35005KT 9SM FEW007 SCT016 OVC024 14/13 A3007 RMK AO2 SLP181 T01440128
KCLE 230751Z 35005KT 10SM FEW007 OVC020 14/12 A3008 RMK AO2 SLP184 T01390117
KCLE 230851Z 36007KT 10SM FEW009 OVC018 14/12 A3010 RMK AO2 SLP189 T01390117 53010
KCLE 230951Z 36006KT 10SM BKN010 OVC014 13/11 A3011 RMK AO2 SLP193 T01330111
KCLE 231055Z 36007KT 10SM OVC004 13/11 A3014 RMK AO2 T01280111



Page loaded:  11:09 UTC  |   04:09 AM Pacific  |   05:09 AM Mountain  |   06:09 AM Central  |   07:09 AM Eastern

 

ADVISORIES

FORECASTS

FORECASTS

OBSERVATIONS

USER TOOLS

ABOUT US